sensor_id;sensor_type;location;lat;lon;timestamp;P1;durP1;ratioP1;P2;durP2;ratioP2
39022;SDS011;25908;51.984;5.928;2022-07-25T00:00:52;4.85;;;3.58;;
39022;SDS011;25908;51.984;5.928;2022-07-25T00:03:18;5.05;;;3.33;;
39022;SDS011;25908;51.984;5.928;2022-07-25T00:05:43;7.75;;;3.17;;
39022;SDS011;25908;51.984;5.928;2022-07-25T00:08:09;5.70;;;3.45;;
39022;SDS011;25908;51.984;5.928;2022-07-25T00:10:34;4.70;;;3.13;;
39022;SDS011;25908;51.984;5.928;2022-07-25T00:13:00;4.20;;;3.22;;
39022;SDS011;25908;51.984;5.928;2022-07-25T00:15:25;5.20;;;3.63;;
39022;SDS011;25908;51.984;5.928;2022-07-25T00:17:51;5.65;;;3.90;;
39022;SDS011;25908;51.984;5.928;2022-07-25T00:20:16;5.75;;;3.45;;
39022;SDS011;25908;51.984;5.928;2022-07-25T00:22:42;4.95;;;3.67;;
39022;SDS011;25908;51.984;5.928;2022-07-25T00:25:08;3.92;;;2.97;;
39022;SDS011;25908;51.984;5.928;2022-07-25T00:27:33;4.38;;;3.38;;
39022;SDS011;25908;51.984;5.928;2022-07-25T00:29:59;5.28;;;3.60;;
39022;SDS011;25908;51.984;5.928;2022-07-25T00:32:24;6.72;;;4.18;;
39022;SDS011;25908;51.984;5.928;2022-07-25T00:34:50;4.63;;;3.47;;
39022;SDS011;25908;51.984;5.928;2022-07-25T00:37:15;4.53;;;3.15;;
39022;SDS011;25908;51.984;5.928;2022-07-25T00:39:41;4.53;;;3.28;;
39022;SDS011;25908;51.984;5.928;2022-07-25T00:42:06;5.32;;;4.30;;
39022;SDS011;25908;51.984;5.928;2022-07-25T00:44:32;4.80;;;3.50;;
39022;SDS011;25908;51.984;5.928;2022-07-25T00:46:58;4.82;;;3.60;;
39022;SDS011;25908;51.984;5.928;2022-07-25T00:49:24;5.00;;;4.22;;
39022;SDS011;25908;51.984;5.928;2022-07-25T00:51:51;4.95;;;3.95;;
39022;SDS011;25908;51.984;5.928;2022-07-25T00:54:17;4.75;;;3.30;;
39022;SDS011;25908;51.984;5.928;2022-07-25T00:56:43;4.07;;;3.22;;
39022;SDS011;25908;51.984;5.928;2022-07-25T00:59:09;4.45;;;3.28;;
39022;SDS011;25908;51.984;5.928;2022-07-25T01:01:35;5.50;;;4.03;;
39022;SDS011;25908;51.984;5.928;2022-07-25T01:04:01;5.20;;;3.50;;
39022;SDS011;25908;51.984;5.928;2022-07-25T01:06:27;4.70;;;3.60;;
39022;SDS011;25908;51.984;5.928;2022-07-25T01:08:53;4.85;;;3.47;;
39022;SDS011;25908;51.984;5.928;2022-07-25T01:11:20;5.22;;;3.70;;
39022;SDS011;25908;51.984;5.928;2022-07-25T01:13:46;5.53;;;3.92;;
39022;SDS011;25908;51.984;5.928;2022-07-25T01:16:12;7.10;;;4.15;;
39022;SDS011;25908;51.984;5.928;2022-07-25T01:18:37;4.45;;;3.80;;
39022;SDS011;25908;51.984;5.928;2022-07-25T01:21:03;5.57;;;4.15;;
39022;SDS011;25908;51.984;5.928;2022-07-25T01:23:29;5.57;;;4.13;;
39022;SDS011;25908;51.984;5.928;2022-07-25T01:25:55;5.00;;;3.50;;
39022;SDS011;25908;51.984;5.928;2022-07-25T01:28:20;5.30;;;4.03;;
39022;SDS011;25908;51.984;5.928;2022-07-25T01:30:46;5.43;;;3.95;;
39022;SDS011;25908;51.984;5.928;2022-07-25T01:33:18;6.93;;;4.30;;
39022;SDS011;25908;51.984;5.928;2022-07-25T01:35:45;7.70;;;4.38;;
39022;SDS011;25908;51.984;5.928;2022-07-25T01:38:11;4.85;;;3.97;;
39022;SDS011;25908;51.984;5.928;2022-07-25T01:40:38;8.57;;;4.03;;
39022;SDS011;25908;51.984;5.928;2022-07-25T01:43:04;5.82;;;3.90;;
39022;SDS011;25908;51.984;5.928;2022-07-25T01:45:30;6.43;;;4.05;;
39022;SDS011;25908;51.984;5.928;2022-07-25T01:47:55;5.60;;;4.15;;
39022;SDS011;25908;51.984;5.928;2022-07-25T01:50:21;6.03;;;4.53;;
39022;SDS011;25908;51.984;5.928;2022-07-25T01:52:47;5.38;;;4.40;;
39022;SDS011;25908;51.984;5.928;2022-07-25T01:55:12;7.97;;;4.95;;
39022;SDS011;25908;51.984;5.928;2022-07-25T01:57:38;8.25;;;4.63;;
39022;SDS011;25908;51.984;5.928;2022-07-25T02:00:05;6.32;;;4.53;;
39022;SDS011;25908;51.984;5.928;2022-07-25T02:02:32;4.90;;;4.30;;
39022;SDS011;25908;51.984;5.928;2022-07-25T02:04:57;4.95;;;4.10;;
39022;SDS011;25908;51.984;5.928;2022-07-25T02:07:23;6.82;;;4.60;;
39022;SDS011;25908;51.984;5.928;2022-07-25T02:09:49;7.18;;;4.40;;
39022;SDS011;25908;51.984;5.928;2022-07-25T02:12:14;7.57;;;4.82;;
39022;SDS011;25908;51.984;5.928;2022-07-25T02:14:40;6.10;;;4.45;;
39022;SDS011;25908;51.984;5.928;2022-07-25T02:17:05;5.43;;;4.40;;
39022;SDS011;25908;51.984;5.928;2022-07-25T02:19:31;5.07;;;4.43;;
39022;SDS011;25908;51.984;5.928;2022-07-25T02:21:57;5.70;;;4.50;;
39022;SDS011;25908;51.984;5.928;2022-07-25T02:24:22;6.32;;;5.32;;
39022;SDS011;25908;51.984;5.928;2022-07-25T02:26:48;7.63;;;5.30;;
39022;SDS011;25908;51.984;5.928;2022-07-25T02:29:13;6.32;;;4.72;;
39022;SDS011;25908;51.984;5.928;2022-07-25T02:31:39;7.00;;;5.00;;
39022;SDS011;25908;51.984;5.928;2022-07-25T02:34:04;6.30;;;4.65;;
39022;SDS011;25908;51.984;5.928;2022-07-25T02:36:30;7.28;;;5.38;;
39022;SDS011;25908;51.984;5.928;2022-07-25T02:38:56;5.90;;;5.00;;
39022;SDS011;25908;51.984;5.928;2022-07-25T02:41:21;6.30;;;4.72;;
39022;SDS011;25908;51.984;5.928;2022-07-25T02:43:47;6.45;;;5.03;;
39022;SDS011;25908;51.984;5.928;2022-07-25T02:46:12;6.22;;;4.85;;
39022;SDS011;25908;51.984;5.928;2022-07-25T02:48:38;8.00;;;5.38;;
39022;SDS011;25908;51.984;5.928;2022-07-25T02:51:03;6.30;;;5.25;;
39022;SDS011;25908;51.984;5.928;2022-07-25T02:53:29;6.65;;;5.25;;
39022;SDS011;25908;51.984;5.928;2022-07-25T02:55:54;7.22;;;5.32;;
39022;SDS011;25908;51.984;5.928;2022-07-25T02:58:20;6.85;;;5.40;;
39022;SDS011;25908;51.984;5.928;2022-07-25T03:00:45;7.47;;;5.25;;
39022;SDS011;25908;51.984;5.928;2022-07-25T03:03:11;6.57;;;5.57;;
39022;SDS011;25908;51.984;5.928;2022-07-25T03:05:37;6.63;;;5.35;;
39022;SDS011;25908;51.984;5.928;2022-07-25T03:08:02;6.90;;;5.47;;
39022;SDS011;25908;51.984;5.928;2022-07-25T03:10:28;7.15;;;5.63;;
39022;SDS011;25908;51.984;5.928;2022-07-25T03:12:54;8.10;;;5.93;;
39022;SDS011;25908;51.984;5.928;2022-07-25T03:15:19;9.57;;;5.68;;
39022;SDS011;25908;51.984;5.928;2022-07-25T03:17:45;8.27;;;5.80;;
39022;SDS011;25908;51.984;5.928;2022-07-25T03:20:11;9.32;;;5.82;;
39022;SDS011;25908;51.984;5.928;2022-07-25T03:22:36;7.45;;;6.07;;
39022;SDS011;25908;51.984;5.928;2022-07-25T03:25:02;8.98;;;6.40;;
39022;SDS011;25908;51.984;5.928;2022-07-25T03:27:28;7.65;;;5.75;;
39022;SDS011;25908;51.984;5.928;2022-07-25T03:29:54;8.75;;;5.85;;
39022;SDS011;25908;51.984;5.928;2022-07-25T03:32:19;7.18;;;5.78;;
39022;SDS011;25908;51.984;5.928;2022-07-25T03:34:45;7.07;;;5.88;;
39022;SDS011;25908;51.984;5.928;2022-07-25T03:37:11;9.70;;;6.50;;
39022;SDS011;25908;51.984;5.928;2022-07-25T03:39:37;8.43;;;6.18;;
39022;SDS011;25908;51.984;5.928;2022-07-25T03:42:02;7.80;;;6.07;;
39022;SDS011;25908;51.984;5.928;2022-07-25T03:44:28;6.80;;;5.90;;
39022;SDS011;25908;51.984;5.928;2022-07-25T03:46:53;7.45;;;6.10;;
39022;SDS011;25908;51.984;5.928;2022-07-25T03:49:19;9.30;;;6.13;;
39022;SDS011;25908;51.984;5.928;2022-07-25T03:51:44;7.68;;;6.85;;
39022;SDS011;25908;51.984;5.928;2022-07-25T03:54:10;9.13;;;6.90;;
39022;SDS011;25908;51.984;5.928;2022-07-25T03:56:47;8.52;;;6.22;;
39022;SDS011;25908;51.984;5.928;2022-07-25T03:59:14;7.13;;;6.00;;
39022;SDS011;25908;51.984;5.928;2022-07-25T04:01:42;8.48;;;6.90;;
39022;SDS011;25908;51.984;5.928;2022-07-25T04:04:08;7.32;;;6.43;;
39022;SDS011;25908;51.984;5.928;2022-07-25T04:06:34;7.78;;;6.60;;
39022;SDS011;25908;51.984;5.928;2022-07-25T04:09:01;8.25;;;6.70;;
39022;SDS011;25908;51.984;5.928;2022-07-25T04:11:27;9.00;;;6.68;;
39022;SDS011;25908;51.984;5.928;2022-07-25T04:13:54;7.10;;;6.25;;
39022;SDS011;25908;51.984;5.928;2022-07-25T04:16:20;6.90;;;6.20;;
39022;SDS011;25908;51.984;5.928;2022-07-25T04:18:46;7.80;;;6.75;;
39022;SDS011;25908;51.984;5.928;2022-07-25T04:21:12;9.55;;;7.07;;
39022;SDS011;25908;51.984;5.928;2022-07-25T04:23:37;9.35;;;7.30;;
39022;SDS011;25908;51.984;5.928;2022-07-25T04:26:03;10.25;;;7.35;;
39022;SDS011;25908;51.984;5.928;2022-07-25T04:28:29;8.05;;;6.28;;
39022;SDS011;25908;51.984;5.928;2022-07-25T04:30:54;9.50;;;6.53;;
39022;SDS011;25908;51.984;5.928;2022-07-25T04:33:20;8.93;;;7.10;;
39022;SDS011;25908;51.984;5.928;2022-07-25T04:35:46;9.00;;;7.57;;
39022;SDS011;25908;51.984;5.928;2022-07-25T04:38:12;8.55;;;7.25;;
39022;SDS011;25908;51.984;5.928;2022-07-25T04:40:37;9.15;;;7.05;;
39022;SDS011;25908;51.984;5.928;2022-07-25T04:43:03;8.02;;;7.10;;
39022;SDS011;25908;51.984;5.928;2022-07-25T04:45:30;8.57;;;7.63;;
39022;SDS011;25908;51.984;5.928;2022-07-25T04:47:56;8.30;;;7.40;;
39022;SDS011;25908;51.984;5.928;2022-07-25T04:50:21;12.30;;;8.30;;
39022;SDS011;25908;51.984;5.928;2022-07-25T04:52:47;10.75;;;7.07;;
39022;SDS011;25908;51.984;5.928;2022-07-25T04:55:13;10.00;;;7.80;;
39022;SDS011;25908;51.984;5.928;2022-07-25T04:57:39;9.95;;;7.97;;
39022;SDS011;25908;51.984;5.928;2022-07-25T05:00:05;8.43;;;7.40;;
39022;SDS011;25908;51.984;5.928;2022-07-25T05:02:32;9.07;;;8.02;;
39022;SDS011;25908;51.984;5.928;2022-07-25T05:04:58;10.68;;;8.15;;
39022;SDS011;25908;51.984;5.928;2022-07-25T05:07:24;9.88;;;8.18;;
39022;SDS011;25908;51.984;5.928;2022-07-25T05:09:50;8.73;;;7.82;;
39022;SDS011;25908;51.984;5.928;2022-07-25T05:12:16;9.55;;;7.20;;
39022;SDS011;25908;51.984;5.928;2022-07-25T05:14:41;9.35;;;8.10;;
39022;SDS011;25908;51.984;5.928;2022-07-25T05:17:07;8.77;;;7.60;;
39022;SDS011;25908;51.984;5.928;2022-07-25T05:19:32;8.93;;;7.60;;
39022;SDS011;25908;51.984;5.928;2022-07-25T05:21:59;10.10;;;8.45;;
39022;SDS011;25908;51.984;5.928;2022-07-25T05:24:25;9.95;;;7.85;;
39022;SDS011;25908;51.984;5.928;2022-07-25T05:26:50;8.68;;;7.63;;
39022;SDS011;25908;51.984;5.928;2022-07-25T05:29:16;10.35;;;8.38;;
39022;SDS011;25908;51.984;5.928;2022-07-25T05:31:42;11.75;;;8.15;;
39022;SDS011;25908;51.984;5.928;2022-07-25T05:34:07;9.20;;;8.20;;
39022;SDS011;25908;51.984;5.928;2022-07-25T05:36:33;10.95;;;8.80;;
39022;SDS011;25908;51.984;5.928;2022-07-25T05:38:58;11.60;;;8.05;;
39022;SDS011;25908;51.984;5.928;2022-07-25T05:41:24;11.77;;;8.48;;
39022;SDS011;25908;51.984;5.928;2022-07-25T05:43:50;11.18;;;9.35;;
39022;SDS011;25908;51.984;5.928;2022-07-25T05:46:16;11.20;;;7.85;;
39022;SDS011;25908;51.984;5.928;2022-07-25T05:48:42;10.25;;;8.27;;
39022;SDS011;25908;51.984;5.928;2022-07-25T05:51:07;10.90;;;8.18;;
39022;SDS011;25908;51.984;5.928;2022-07-25T05:53:34;9.20;;;7.47;;
39022;SDS011;25908;51.984;5.928;2022-07-25T05:56:00;8.93;;;7.20;;
39022;SDS011;25908;51.984;5.928;2022-07-25T05:58:26;9.27;;;7.90;;
39022;SDS011;25908;51.984;5.928;2022-07-25T06:00:52;11.45;;;7.65;;
39022;SDS011;25908;51.984;5.928;2022-07-25T06:03:17;12.18;;;8.35;;
39022;SDS011;25908;51.984;5.928;2022-07-25T06:05:44;11.25;;;7.60;;
39022;SDS011;25908;51.984;5.928;2022-07-25T06:08:10;10.50;;;7.13;;
39022;SDS011;25908;51.984;5.928;2022-07-25T06:10:37;7.95;;;6.30;;
39022;SDS011;25908;51.984;5.928;2022-07-25T06:13:03;10.05;;;6.95;;
39022;SDS011;25908;51.984;5.928;2022-07-25T06:15:29;8.30;;;6.70;;
39022;SDS011;25908;51.984;5.928;2022-07-25T06:17:54;8.65;;;6.97;;
39022;SDS011;25908;51.984;5.928;2022-07-25T06:20:20;9.75;;;7.40;;
39022;SDS011;25908;51.984;5.928;2022-07-25T06:22:46;12.13;;;6.82;;
39022;SDS011;25908;51.984;5.928;2022-07-25T06:25:11;8.00;;;6.90;;
39022;SDS011;25908;51.984;5.928;2022-07-25T06:27:37;9.10;;;7.15;;
39022;SDS011;25908;51.984;5.928;2022-07-25T06:30:03;8.70;;;6.68;;
39022;SDS011;25908;51.984;5.928;2022-07-25T06:32:30;9.68;;;8.07;;
39022;SDS011;25908;51.984;5.928;2022-07-25T06:34:55;11.88;;;6.95;;
39022;SDS011;25908;51.984;5.928;2022-07-25T06:37:21;9.27;;;8.10;;
39022;SDS011;25908;51.984;5.928;2022-07-25T06:39:46;11.95;;;8.25;;
39022;SDS011;25908;51.984;5.928;2022-07-25T06:42:12;9.98;;;7.22;;
39022;SDS011;25908;51.984;5.928;2022-07-25T06:44:38;10.93;;;7.47;;
39022;SDS011;25908;51.984;5.928;2022-07-25T06:47:03;9.25;;;7.55;;
39022;SDS011;25908;51.984;5.928;2022-07-25T06:49:29;11.25;;;9.55;;
39022;SDS011;25908;51.984;5.928;2022-07-25T06:51:55;11.75;;;8.88;;
39022;SDS011;25908;51.984;5.928;2022-07-25T06:54:21;10.85;;;7.60;;
39022;SDS011;25908;51.984;5.928;2022-07-25T06:56:47;11.85;;;8.52;;
39022;SDS011;25908;51.984;5.928;2022-07-25T06:59:12;14.68;;;9.65;;
39022;SDS011;25908;51.984;5.928;2022-07-25T07:01:38;8.60;;;7.15;;
39022;SDS011;25908;51.984;5.928;2022-07-25T07:04:03;11.27;;;8.55;;
39022;SDS011;25908;51.984;5.928;2022-07-25T07:06:29;10.77;;;7.53;;
39022;SDS011;25908;51.984;5.928;2022-07-25T07:08:55;12.35;;;8.43;;
39022;SDS011;25908;51.984;5.928;2022-07-25T07:11:20;10.32;;;7.88;;
39022;SDS011;25908;51.984;5.928;2022-07-25T07:13:46;11.77;;;8.23;;
39022;SDS011;25908;51.984;5.928;2022-07-25T07:16:12;11.70;;;8.45;;
39022;SDS011;25908;51.984;5.928;2022-07-25T07:18:37;13.13;;;9.35;;
39022;SDS011;25908;51.984;5.928;2022-07-25T07:21:03;9.88;;;8.30;;
39022;SDS011;25908;51.984;5.928;2022-07-25T07:23:29;10.65;;;8.93;;
39022;SDS011;25908;51.984;5.928;2022-07-25T07:25:55;10.60;;;8.00;;
39022;SDS011;25908;51.984;5.928;2022-07-25T07:28:21;9.30;;;7.82;;
39022;SDS011;25908;51.984;5.928;2022-07-25T07:30:46;9.98;;;7.53;;
39022;SDS011;25908;51.984;5.928;2022-07-25T07:33:12;8.95;;;8.05;;
39022;SDS011;25908;51.984;5.928;2022-07-25T07:35:37;10.15;;;6.80;;
39022;SDS011;25908;51.984;5.928;2022-07-25T07:38:03;11.65;;;7.90;;
39022;SDS011;25908;51.984;5.928;2022-07-25T07:40:29;9.32;;;6.50;;
39022;SDS011;25908;51.984;5.928;2022-07-25T07:42:55;10.32;;;6.15;;
39022;SDS011;25908;51.984;5.928;2022-07-25T07:45:22;12.43;;;5.68;;
39022;SDS011;25908;51.984;5.928;2022-07-25T07:47:50;6.45;;;4.88;;
39022;SDS011;25908;51.984;5.928;2022-07-25T07:50:17;5.22;;;4.15;;
39022;SDS011;25908;51.984;5.928;2022-07-25T07:52:45;6.50;;;3.95;;
39022;SDS011;25908;51.984;5.928;2022-07-25T07:55:12;4.55;;;3.33;;
39022;SDS011;25908;51.984;5.928;2022-07-25T07:57:56;6.45;;;3.45;;
39022;SDS011;25908;51.984;5.928;2022-07-25T08:00:24;7.82;;;4.05;;
39022;SDS011;25908;51.984;5.928;2022-07-25T08:02:51;5.82;;;3.30;;
39022;SDS011;25908;51.984;5.928;2022-07-25T08:05:19;5.97;;;3.60;;
39022;SDS011;25908;51.984;5.928;2022-07-25T08:07:48;6.88;;;3.75;;
39022;SDS011;25908;51.984;5.928;2022-07-25T08:10:16;5.20;;;3.50;;
39022;SDS011;25908;51.984;5.928;2022-07-25T08:12:49;6.28;;;3.67;;
39022;SDS011;25908;51.984;5.928;2022-07-25T08:15:16;6.60;;;4.10;;
39022;SDS011;25908;51.984;5.928;2022-07-25T08:17:43;4.55;;;3.47;;
39022;SDS011;25908;51.984;5.928;2022-07-25T08:20:10;4.50;;;3.20;;
39022;SDS011;25908;51.984;5.928;2022-07-25T08:22:40;6.68;;;3.90;;
39022;SDS011;25908;51.984;5.928;2022-07-25T08:25:07;8.80;;;2.97;;
39022;SDS011;25908;51.984;5.928;2022-07-25T08:27:34;5.63;;;3.05;;
39022;SDS011;25908;51.984;5.928;2022-07-25T08:30:01;4.45;;;2.58;;
39022;SDS011;25908;51.984;5.928;2022-07-25T08:32:28;3.55;;;2.20;;
39022;SDS011;25908;51.984;5.928;2022-07-25T08:34:54;3.63;;;2.03;;
39022;SDS011;25908;51.984;5.928;2022-07-25T08:37:20;3.65;;;1.80;;
39022;SDS011;25908;51.984;5.928;2022-07-25T08:39:46;3.60;;;2.17;;
39022;SDS011;25908;51.984;5.928;2022-07-25T08:42:12;5.20;;;2.20;;
39022;SDS011;25908;51.984;5.928;2022-07-25T08:44:39;3.20;;;1.75;;
39022;SDS011;25908;51.984;5.928;2022-07-25T08:47:08;4.30;;;1.65;;
39022;SDS011;25908;51.984;5.928;2022-07-25T08:49:34;5.50;;;2.05;;
39022;SDS011;25908;51.984;5.928;2022-07-25T08:52:01;2.75;;;1.65;;
39022;SDS011;25908;51.984;5.928;2022-07-25T08:54:27;3.17;;;1.60;;
39022;SDS011;25908;51.984;5.928;2022-07-25T08:56:55;6.60;;;1.80;;
39022;SDS011;25908;51.984;5.928;2022-07-25T08:59:21;5.00;;;2.05;;
39022;SDS011;25908;51.984;5.928;2022-07-25T09:01:46;3.00;;;1.83;;
39022;SDS011;25908;51.984;5.928;2022-07-25T09:04:12;3.53;;;1.45;;
39022;SDS011;25908;51.984;5.928;2022-07-25T09:06:47;2.33;;;1.60;;
39022;SDS011;25908;51.984;5.928;2022-07-25T09:09:16;4.43;;;1.58;;
39022;SDS011;25908;51.984;5.928;2022-07-25T09:11:42;4.95;;;1.90;;
39022;SDS011;25908;51.984;5.928;2022-07-25T09:14:09;3.47;;;1.70;;
39022;SDS011;25908;51.984;5.928;2022-07-25T09:16:38;3.83;;;1.67;;
39022;SDS011;25908;51.984;5.928;2022-07-25T09:19:26;5.53;;;1.83;;
39022;SDS011;25908;51.984;5.928;2022-07-25T09:21:58;2.22;;;1.35;;
39022;SDS011;25908;51.984;5.928;2022-07-25T09:24:28;2.97;;;1.67;;
39022;SDS011;25908;51.984;5.928;2022-07-25T09:26:55;5.28;;;1.55;;
39022;SDS011;25908;51.984;5.928;2022-07-25T09:29:24;4.68;;;1.38;;
39022;SDS011;25908;51.984;5.928;2022-07-25T09:31:54;3.35;;;1.20;;
39022;SDS011;25908;51.984;5.928;2022-07-25T09:34:34;4.30;;;1.20;;
39022;SDS011;25908;51.984;5.928;2022-07-25T09:37:05;5.85;;;1.20;;
39022;SDS011;25908;51.984;5.928;2022-07-25T09:39:32;2.55;;;1.00;;
39022;SDS011;25908;51.984;5.928;2022-07-25T09:41:58;2.67;;;1.40;;
39022;SDS011;25908;51.984;5.928;2022-07-25T09:44:24;4.18;;;1.10;;
39022;SDS011;25908;51.984;5.928;2022-07-25T09:46:56;3.08;;;1.17;;
39022;SDS011;25908;51.984;5.928;2022-07-25T09:49:25;3.20;;;1.10;;
39022;SDS011;25908;51.984;5.928;2022-07-25T09:52:00;4.32;;;1.30;;
39022;SDS011;25908;51.984;5.928;2022-07-25T09:54:26;4.28;;;1.10;;
39022;SDS011;25908;51.984;5.928;2022-07-25T09:56:54;4.90;;;1.20;;
39022;SDS011;25908;51.984;5.928;2022-07-25T09:59:19;2.67;;;0.77;;
39022;SDS011;25908;51.984;5.928;2022-07-25T10:01:47;2.10;;;1.00;;
39022;SDS011;25908;51.984;5.928;2022-07-25T10:04:44;2.88;;;0.80;;
39022;SDS011;25908;51.984;5.928;2022-07-25T10:07:18;2.50;;;0.88;;
39022;SDS011;25908;51.984;5.928;2022-07-25T10:09:49;3.88;;;1.08;;
39022;SDS011;25908;51.984;5.928;2022-07-25T10:12:19;2.15;;;1.00;;
39022;SDS011;25908;51.984;5.928;2022-07-25T10:17:47;2.70;;;1.17;;
39022;SDS011;25908;51.984;5.928;2022-07-25T10:20:14;2.20;;;0.98;;
39022;SDS011;25908;51.984;5.928;2022-07-25T10:22:41;5.50;;;1.40;;
39022;SDS011;25908;51.984;5.928;2022-07-25T10:25:15;3.22;;;1.10;;
39022;SDS011;25908;51.984;5.928;2022-07-25T10:27:42;3.67;;;1.17;;
39022;SDS011;25908;51.984;5.928;2022-07-25T10:30:19;6.32;;;1.17;;
39022;SDS011;25908;51.984;5.928;2022-07-25T10:32:49;5.32;;;1.50;;
39022;SDS011;25908;51.984;5.928;2022-07-25T10:35:22;4.53;;;1.05;;
39022;SDS011;25908;51.984;5.928;2022-07-25T10:37:50;2.22;;;0.98;;
39022;SDS011;25908;51.984;5.928;2022-07-25T10:43:01;3.65;;;1.30;;
39022;SDS011;25908;51.984;5.928;2022-07-25T10:45:36;6.10;;;1.58;;
39022;SDS011;25908;51.984;5.928;2022-07-25T10:48:07;5.93;;;1.90;;
39022;SDS011;25908;51.984;5.928;2022-07-25T10:53:10;3.90;;;1.60;;
39022;SDS011;25908;51.984;5.928;2022-07-25T10:55:35;4.00;;;1.45;;
39022;SDS011;25908;51.984;5.928;2022-07-25T10:58:02;6.25;;;1.60;;
39022;SDS011;25908;51.984;5.928;2022-07-25T11:00:30;5.47;;;1.58;;
39022;SDS011;25908;51.984;5.928;2022-07-25T11:02:57;5.93;;;2.13;;
39022;SDS011;25908;51.984;5.928;2022-07-25T11:05:22;8.77;;;1.60;;
39022;SDS011;25908;51.984;5.928;2022-07-25T11:07:49;5.25;;;1.60;;
39022;SDS011;25908;51.984;5.928;2022-07-25T11:10:23;10.77;;;1.63;;
39022;SDS011;25908;51.984;5.928;2022-07-25T11:12:50;10.07;;;1.70;;
39022;SDS011;25908;51.984;5.928;2022-07-25T11:15:15;12.18;;;2.10;;
39022;SDS011;25908;51.984;5.928;2022-07-25T11:17:50;12.25;;;2.80;;
39022;SDS011;25908;51.984;5.928;2022-07-25T11:20:17;8.20;;;1.77;;
39022;SDS011;25908;51.984;5.928;2022-07-25T11:22:52;6.55;;;1.90;;
39022;SDS011;25908;51.984;5.928;2022-07-25T11:25:19;5.38;;;1.45;;
39022;SDS011;25908;51.984;5.928;2022-07-25T11:27:56;8.02;;;1.83;;
39022;SDS011;25908;51.984;5.928;2022-07-25T11:30:23;6.47;;;1.20;;
39022;SDS011;25908;51.984;5.928;2022-07-25T11:32:50;6.15;;;1.58;;
39022;SDS011;25908;51.984;5.928;2022-07-25T11:35:25;5.95;;;1.50;;
39022;SDS011;25908;51.984;5.928;2022-07-25T11:37:52;5.85;;;1.52;;
39022;SDS011;25908;51.984;5.928;2022-07-25T11:40:18;5.53;;;1.75;;
39022;SDS011;25908;51.984;5.928;2022-07-25T11:42:50;4.75;;;1.40;;
39022;SDS011;25908;51.984;5.928;2022-07-25T11:48:13;5.95;;;1.77;;
39022;SDS011;25908;51.984;5.928;2022-07-25T11:50:39;4.68;;;1.75;;
39022;SDS011;25908;51.984;5.928;2022-07-25T11:53:07;5.75;;;2.05;;
39022;SDS011;25908;51.984;5.928;2022-07-25T11:55:36;6.70;;;1.88;;
39022;SDS011;25908;51.984;5.928;2022-07-25T11:58:07;6.93;;;2.15;;
39022;SDS011;25908;51.984;5.928;2022-07-25T12:00:34;4.85;;;1.40;;
39022;SDS011;25908;51.984;5.928;2022-07-25T12:03:07;7.45;;;1.75;;
39022;SDS011;25908;51.984;5.928;2022-07-25T12:05:34;4.75;;;1.58;;
39022;SDS011;25908;51.984;5.928;2022-07-25T12:08:07;4.45;;;1.38;;
39022;SDS011;25908;51.984;5.928;2022-07-25T12:10:41;6.47;;;2.08;;
39022;SDS011;25908;51.984;5.928;2022-07-25T12:13:22;6.28;;;1.60;;
39022;SDS011;25908;51.984;5.928;2022-07-25T12:15:49;4.35;;;1.85;;
39022;SDS011;25908;51.984;5.928;2022-07-25T12:18:14;6.82;;;1.70;;
39022;SDS011;25908;51.984;5.928;2022-07-25T12:20:40;4.80;;;1.83;;
39022;SDS011;25908;51.984;5.928;2022-07-25T12:23:07;4.22;;;1.60;;
39022;SDS011;25908;51.984;5.928;2022-07-25T12:25:35;6.88;;;1.88;;
39022;SDS011;25908;51.984;5.928;2022-07-25T12:28:03;5.78;;;1.48;;
39022;SDS011;25908;51.984;5.928;2022-07-25T12:30:29;6.63;;;1.83;;
39022;SDS011;25908;51.984;5.928;2022-07-25T12:32:56;7.18;;;1.63;;
39022;SDS011;25908;51.984;5.928;2022-07-25T12:35:22;4.97;;;1.70;;
39022;SDS011;25908;51.984;5.928;2022-07-25T12:37:48;5.93;;;1.77;;
39022;SDS011;25908;51.984;5.928;2022-07-25T12:40:14;6.07;;;1.52;;
39022;SDS011;25908;51.984;5.928;2022-07-25T12:42:40;12.63;;;2.20;;
39022;SDS011;25908;51.984;5.928;2022-07-25T12:45:07;7.13;;;1.95;;
39022;SDS011;25908;51.984;5.928;2022-07-25T12:47:33;8.35;;;2.50;;
39022;SDS011;25908;51.984;5.928;2022-07-25T12:49:59;7.25;;;2.30;;
39022;SDS011;25908;51.984;5.928;2022-07-25T12:52:25;7.85;;;2.22;;
39022;SDS011;25908;51.984;5.928;2022-07-25T12:54:51;4.82;;;1.83;;
39022;SDS011;25908;51.984;5.928;2022-07-25T12:57:17;6.90;;;2.10;;
39022;SDS011;25908;51.984;5.928;2022-07-25T12:59:44;6.50;;;2.35;;
39022;SDS011;25908;51.984;5.928;2022-07-25T13:02:11;7.07;;;2.72;;
39022;SDS011;25908;51.984;5.928;2022-07-25T13:04:37;7.43;;;2.60;;
39022;SDS011;25908;51.984;5.928;2022-07-25T13:07:03;8.88;;;2.63;;
39022;SDS011;25908;51.984;5.928;2022-07-25T13:09:29;5.10;;;2.10;;
39022;SDS011;25908;51.984;5.928;2022-07-25T13:11:56;6.72;;;2.90;;
39022;SDS011;25908;51.984;5.928;2022-07-25T13:14:22;10.00;;;2.40;;
39022;SDS011;25908;51.984;5.928;2022-07-25T13:16:48;6.20;;;2.10;;
39022;SDS011;25908;51.984;5.928;2022-07-25T13:19:14;16.10;;;2.55;;
39022;SDS011;25908;51.984;5.928;2022-07-25T13:21:40;5.63;;;1.85;;
39022;SDS011;25908;51.984;5.928;2022-07-25T13:24:07;7.22;;;2.60;;
39022;SDS011;25908;51.984;5.928;2022-07-25T13:26:33;7.28;;;2.38;;
39022;SDS011;25908;51.984;5.928;2022-07-25T13:28:59;5.50;;;2.30;;
39022;SDS011;25908;51.984;5.928;2022-07-25T13:31:25;7.13;;;2.47;;
39022;SDS011;25908;51.984;5.928;2022-07-25T13:33:51;5.72;;;2.03;;
39022;SDS011;25908;51.984;5.928;2022-07-25T13:36:18;10.38;;;3.45;;
39022;SDS011;25908;51.984;5.928;2022-07-25T13:38:44;11.45;;;2.50;;
39022;SDS011;25908;51.984;5.928;2022-07-25T13:41:11;8.93;;;2.60;;
39022;SDS011;25908;51.984;5.928;2022-07-25T13:43:37;8.30;;;2.40;;
39022;SDS011;25908;51.984;5.928;2022-07-25T13:46:03;9.13;;;3.17;;
39022;SDS011;25908;51.984;5.928;2022-07-25T13:48:29;8.20;;;2.38;;
39022;SDS011;25908;51.984;5.928;2022-07-25T13:50:55;7.57;;;2.42;;
39022;SDS011;25908;51.984;5.928;2022-07-25T13:53:22;7.10;;;2.78;;
39022;SDS011;25908;51.984;5.928;2022-07-25T13:55:47;8.43;;;2.90;;
39022;SDS011;25908;51.984;5.928;2022-07-25T13:58:13;5.78;;;2.40;;
39022;SDS011;25908;51.984;5.928;2022-07-25T14:00:39;7.57;;;3.13;;
39022;SDS011;25908;51.984;5.928;2022-07-25T14:03:04;10.20;;;2.25;;
39022;SDS011;25908;51.984;5.928;2022-07-25T14:05:30;7.07;;;2.38;;
39022;SDS011;25908;51.984;5.928;2022-07-25T14:07:56;7.63;;;2.72;;
39022;SDS011;25908;51.984;5.928;2022-07-25T14:10:23;6.40;;;2.40;;
39022;SDS011;25908;51.984;5.928;2022-07-25T14:12:49;6.88;;;2.03;;
39022;SDS011;25908;51.984;5.928;2022-07-25T14:15:15;16.90;;;2.65;;
39022;SDS011;25908;51.984;5.928;2022-07-25T14:17:41;7.15;;;2.67;;
39022;SDS011;25908;51.984;5.928;2022-07-25T14:20:07;10.50;;;2.70;;
39022;SDS011;25908;51.984;5.928;2022-07-25T14:22:33;9.68;;;2.40;;
39022;SDS011;25908;51.984;5.928;2022-07-25T14:24:59;7.47;;;2.35;;
39022;SDS011;25908;51.984;5.928;2022-07-25T14:27:24;7.25;;;2.42;;
39022;SDS011;25908;51.984;5.928;2022-07-25T14:29:50;8.63;;;2.13;;
39022;SDS011;25908;51.984;5.928;2022-07-25T14:32:15;8.75;;;2.40;;
39022;SDS011;25908;51.984;5.928;2022-07-25T14:34:41;4.07;;;1.63;;
39022;SDS011;25908;51.984;5.928;2022-07-25T14:37:07;3.42;;;1.85;;
39022;SDS011;25908;51.984;5.928;2022-07-25T14:39:33;7.38;;;2.22;;
39022;SDS011;25908;51.984;5.928;2022-07-25T14:41:58;7.47;;;2.30;;
39022;SDS011;25908;51.984;5.928;2022-07-25T14:44:25;7.57;;;2.30;;
39022;SDS011;25908;51.984;5.928;2022-07-25T14:46:54;8.95;;;2.25;;
39022;SDS011;25908;51.984;5.928;2022-07-25T14:49:24;9.70;;;2.50;;
39022;SDS011;25908;51.984;5.928;2022-07-25T14:51:50;11.25;;;2.03;;
39022;SDS011;25908;51.984;5.928;2022-07-25T14:54:16;12.27;;;3.05;;